Time;durP1;ratioP1;P1;durP2;ratioP2;P2;SDS_P1;SDS_P2;PMS_P1;PMS_P2;Temp;Humidity;BMP_temperature;BMP_pressure;BME280_temperature;BME280_humidity;BME280_pressure;Samples;Min_cycle;Max_cycle;Signal;HPM_P1;HPM_P2
2021/10/22 00:01:49;;;;;;;7.85;1.50;;;29.80;24.50;;;;;;4969168;28;20105;-66
2021/10/22 00:04:15;;;;;;;10.95;1.80;;;29.70;24.60;;;;;;4952728;28;20440;-66
2021/10/22 00:06:41;;;;;;;10.80;1.65;;;29.70;25.30;;;;;;4968883;28;20203;-68
2021/10/22 00:09:08;;;;;;;13.15;1.55;;;29.60;24.70;;;;;;4967912;28;20086;-66
2021/10/22 00:11:35;;;;;;;9.25;1.58;;;29.60;23.80;;;;;;4952481;28;20070;-66
2021/10/22 00:14:01;;;;;;;8.10;1.35;;;29.60;23.90;;;;;;4968556;28;20078;-65
2021/10/22 00:16:28;;;;;;;13.15;1.48;;;29.50;24.30;;;;;;4952702;28;20126;-65
2021/10/22 00:18:54;;;;;;;9.63;1.50;;;29.40;24.50;;;;;;4936649;28;20087;-69
2021/10/22 00:21:21;;;;;;;8.40;1.25;;;29.40;23.80;;;;;;4936702;28;20097;-69
2021/10/22 00:23:47;;;;;;;13.02;1.42;;;29.30;23.30;;;;;;4953630;28;20519;-68
2021/10/22 00:26:14;;;;;;;12.77;1.33;;;29.20;23.40;;;;;;4952234;28;20505;-68
2021/10/22 00:28:41;;;;;;;9.27;1.45;;;29.10;23.90;;;;;;4952286;28;20095;-68
2021/10/22 00:31:08;;;;;;;7.28;1.20;;;29.10;24.20;;;;;;4953426;28;20133;-66
2021/10/22 00:33:34;;;;;;;11.77;1.70;;;28.90;24.50;;;;;;4936722;28;20082;-67
2021/10/22 00:36:02;;;;;;;11.13;1.52;;;28.90;23.90;;;;;;4967151;28;20161;-67
2021/10/22 00:38:28;;;;;;;12.43;1.50;;;28.80;24.30;;;;;;4952538;28;20504;-66
2021/10/22 00:40:55;;;;;;;10.88;1.52;;;28.70;24.30;;;;;;4952254;28;20304;-69
2021/10/22 00:43:22;;;;;;;7.65;1.40;;;28.60;24.80;;;;;;4951996;28;20140;-68
2021/10/22 00:45:54;;;;;;;9.00;1.45;;;28.50;25.10;;;;;;4953113;28;20087;-67
2021/10/22 00:48:20;;;;;;;4.80;1.30;;;28.40;25.50;;;;;;4967070;28;20115;-67
2021/10/22 00:50:51;;;;;;;14.30;1.70;;;28.20;25.70;;;;;;4951770;28;20078;-67
2021/10/22 00:53:24;;;;;;;11.38;1.40;;;28.10;26.30;;;;;;4936297;28;20122;-67
2021/10/22 00:55:51;;;;;;;9.60;1.98;;;28.00;26.10;;;;;;4967502;28;20102;-68
2021/10/22 00:58:18;;;;;;;19.52;1.90;;;27.80;26.40;;;;;;4965856;28;20106;-68
2021/10/22 01:00:45;;;;;;;9.85;1.83;;;27.70;26.70;;;;;;4950439;28;20082;-67
2021/10/22 01:03:11;;;;;;;11.07;1.75;;;27.60;27.10;;;;;;4966494;28;20067;-67
2021/10/22 01:05:38;;;;;;;15.77;2.20;;;27.40;27.10;;;;;;4952482;28;20098;-68
2021/10/22 01:08:06;;;;;;;18.30;2.22;;;27.20;27.40;;;;;;4938186;28;20105;-65
2021/10/22 01:10:34;;;;;;;16.10;2.45;;;27.10;27.60;;;;;;4964648;28;20082;-67
2021/10/22 01:13:00;;;;;;;21.42;2.55;;;27.00;28.00;;;;;;4966810;28;20126;-66
2021/10/22 01:15:27;;;;;;;14.85;2.40;;;26.80;28.30;;;;;;4950124;28;20498;-70
2021/10/22 01:17:55;;;;;;;16.83;2.75;;;26.70;28.70;;;;;;4950690;28;20620;-67
2021/10/22 01:20:23;;;;;;;17.73;3.45;;;26.60;29.10;;;;;;4951558;28;20098;-66
2021/10/22 01:22:52;;;;;;;21.58;3.03;;;26.50;29.30;;;;;;4951509;28;20153;-64
2021/10/22 01:25:22;;;;;;;15.00;2.67;;;26.50;29.70;;;;;;4966193;28;20071;-67
2021/10/22 01:27:48;;;;;;;21.45;3.35;;;26.30;29.70;;;;;;4949511;28;20109;-67
2021/10/22 01:30:21;;;;;;;26.25;4.03;;;26.20;29.90;;;;;;4965252;28;20128;-64
2021/10/22 01:32:54;;;;;;;30.63;4.20;;;26.10;30.10;;;;;;4966003;28;20189;-67
2021/10/22 01:35:21;;;;;;;37.60;4.07;;;26.10;30.60;;;;;;4950089;28;20477;-65
2021/10/22 01:37:48;;;;;;;30.27;4.22;;;25.90;31.00;;;;;;4950384;28;20074;-68
2021/10/22 01:40:15;;;;;;;51.72;5.00;;;25.90;31.90;;;;;;4965966;28;20148;-67
2021/10/22 01:42:41;;;;;;;41.15;4.05;;;25.80;32.10;;;;;;4966603;28;20078;-67
2021/10/22 01:45:10;;;;;;;44.15;4.75;;;25.60;32.50;;;;;;4966125;28;20544;-66
2021/10/22 01:47:37;;;;;;;31.98;3.85;;;25.40;33.00;;;;;;4965838;28;20195;-63
2021/10/22 01:50:03;;;;;;;34.00;5.15;;;25.30;33.30;;;;;;4965444;28;20075;-66
2021/10/22 01:52:30;;;;;;;51.90;9.80;;;25.30;33.60;;;;;;4965636;28;20089;-64
2021/10/22 01:54:56;;;;;;;56.03;8.07;;;25.20;33.50;;;;;;4950716;28;20174;-66
2021/10/22 01:57:23;;;;;;;42.65;6.70;;;25.20;33.70;;;;;;4966399;28;20102;-67
2021/10/22 01:59:50;;;;;;;47.70;6.45;;;25.10;33.60;;;;;;4951638;28;20090;-65
2021/10/22 02:02:17;;;;;;;39.92;6.10;;;25.20;47.50;;;;;;4953700;28;20078;-66
2021/10/22 02:04:44;;;;;;;49.40;6.88;;;24.90;34.10;;;;;;4954193;28;20118;-63
2021/10/22 02:07:10;;;;;;;59.45;6.93;;;24.90;34.50;;;;;;4953072;28;20077;-65
2021/10/22 02:09:37;;;;;;;42.55;6.13;;;24.90;34.30;;;;;;4955829;28;20094;-65
2021/10/22 02:12:04;;;;;;;53.08;6.10;;;24.70;34.70;;;;;;4969199;28;20243;-67
2021/10/22 02:14:30;;;;;;;44.13;6.68;;;24.60;35.10;;;;;;4953720;28;20126;-67
2021/10/22 02:16:57;;;;;;;68.25;7.20;;;24.60;35.70;;;;;;4968366;28;20544;-65
2021/10/22 02:19:24;;;;;;;52.40;7.03;;;24.50;36.20;;;;;;4954314;28;20091;-67
2021/10/22 02:21:50;;;;;;;40.13;6.78;;;24.50;36.20;;;;;;4953233;28;20067;-67
2021/10/22 02:24:17;;;;;;;55.67;6.68;;;24.50;36.90;;;;;;4969039;28;20071;-64
2021/10/22 02:26:43;;;;;;;53.13;7.72;;;24.40;36.80;;;;;;4953530;28;20066;-65
2021/10/22 02:29:09;;;;;;;51.83;6.32;;;24.40;36.60;;;;;;4954863;28;20080;-64
2021/10/22 02:31:36;;;;;;;48.42;7.20;;;24.30;36.30;;;;;;4952575;28;20111;-63
2021/10/22 02:34:02;;;;;;;34.03;6.30;;;24.20;35.70;;;;;;4952931;28;20095;-66
2021/10/22 02:36:29;;;;;;;48.45;7.32;;;24.10;35.90;;;;;;4951285;28;20163;-67
2021/10/22 02:38:55;;;;;;;54.38;6.50;;;24.10;36.00;;;;;;4953729;28;20091;-66
2021/10/22 02:41:22;;;;;;;72.53;9.35;;;24.00;36.60;;;;;;4958193;28;20091;-67
2021/10/22 02:43:48;;;;;;;48.13;8.32;;;24.00;37.00;;;;;;4953300;28;20088;-67
2021/10/22 02:46:15;;;;;;;62.45;8.82;;;23.90;36.70;;;;;;4951187;28;20072;-64
2021/10/22 02:48:43;;;;;;;82.25;9.32;;;23.90;37.60;;;;;;4951952;28;20072;-66
2021/10/22 02:51:09;;;;;;;54.45;8.98;;;23.80;37.70;;;;;;4951966;28;20170;-65
2021/10/22 02:53:36;;;;;;;89.07;9.88;;;23.80;36.80;;;;;;4968596;28;20104;-66
2021/10/22 02:56:02;;;;;;;79.53;9.48;;;23.60;36.80;;;;;;4968503;28;20134;-66
2021/10/22 02:58:29;;;;;;;69.63;10.13;;;23.60;37.20;;;;;;4954605;28;20072;-65
2021/10/22 03:00:56;;;;;;;77.97;10.02;;;23.60;37.40;;;;;;4952158;28;20090;-64
2021/10/22 03:03:22;;;;;;;67.28;9.30;;;23.60;38.00;;;;;;4952006;28;20102;-65
2021/10/22 03:05:48;;;;;;;78.05;10.15;;;23.60;38.40;;;;;;4968015;28;20076;-65
2021/10/22 03:08:15;;;;;;;70.45;10.18;;;21.70;37.30;;;;;;4950739;28;20127;-66
2021/10/22 03:10:42;;;;;;;80.50;10.18;;;23.40;38.60;;;;;;4951651;28;20518;-68
2021/10/22 03:13:10;;;;;;;91.25;11.80;;;23.40;39.00;;;;;;4952374;28;20431;-70
2021/10/22 03:15:37;;;;;;;79.15;11.07;;;23.40;38.90;;;;;;4952925;28;20080;-66
2021/10/22 03:18:03;;;;;;;90.70;11.68;;;23.30;38.70;;;;;;4952416;28;20558;-66
2021/10/22 03:20:31;;;;;;;80.60;12.40;;;23.30;39.20;;;;;;4951358;28;20114;-66
2021/10/22 03:22:57;;;;;;;114.80;13.27;;;23.10;39.60;;;;;;4953271;28;20081;-66
2021/10/22 03:25:23;;;;;;;80.10;12.30;;;23.10;39.50;;;;;;4952019;28;20568;-68
2021/10/22 03:27:51;;;;;;;72.63;12.48;;;23.00;39.50;;;;;;4952596;28;20158;-65
2021/10/22 03:30:17;;;;;;;90.78;13.63;;;23.00;40.60;;;;;;4951867;28;20091;-66
2021/10/22 03:32:44;;;;;;;96.97;13.90;;;22.80;40.30;;;;;;4952020;28;20107;-66
2021/10/22 03:35:11;;;;;;;108.40;14.77;;;22.80;40.80;;;;;;4940275;28;20111;-67
2021/10/22 03:37:37;;;;;;;113.40;15.90;;;22.80;41.10;;;;;;4952292;28;20114;-65
2021/10/22 03:40:04;;;;;;;120.63;15.45;;;22.70;40.90;;;;;;4952380;28;20458;-66
2021/10/22 03:42:31;;;;;;;102.82;15.50;;;22.70;41.00;;;;;;4951496;28;20546;-67
2021/10/22 03:44:58;;;;;;;113.53;16.35;;;22.60;41.00;;;;;;4951664;28;20171;-65
2021/10/22 03:47:24;;;;;;;102.47;19.60;;;22.70;41.00;;;;;;4951795;28;20569;-64
2021/10/22 03:49:50;;;;;;;161.70;21.35;;;22.60;41.20;;;;;;4953350;28;20745;-66
2021/10/22 03:52:17;;;;;;;120.55;17.73;;;22.60;41.20;;;;;;4951333;28;20103;-66
2021/10/22 03:54:43;;;;;;;114.35;16.92;;;22.60;41.30;;;;;;4951984;28;20072;-67
2021/10/22 03:57:10;;;;;;;104.03;16.48;;;22.60;41.50;;;;;;4953762;28;20091;-63
2021/10/22 03:59:36;;;;;;;138.68;18.73;;;22.50;42.30;;;;;;4962975;28;21017;-67
2021/10/22 04:02:03;;;;;;;127.60;17.92;;;22.50;42.00;;;;;;4950434;28;20076;-67
2021/10/22 04:04:30;;;;;;;121.18;17.73;;;22.50;42.20;;;;;;4951486;28;20103;-67
2021/10/22 04:06:57;;;;;;;92.07;16.63;;;22.50;42.20;;;;;;4951906;28;20538;-67
2021/10/22 04:09:28;;;;;;;118.82;18.33;;;22.40;42.60;;;;;;4967780;28;20522;-64
2021/10/22 04:11:55;;;;;;;93.28;17.92;;;22.40;42.60;;;;;;4970424;28;20127;-68
2021/10/22 04:14:21;;;;;;;117.32;17.65;;;22.40;42.50;;;;;;4955178;28;20167;-67
2021/10/22 04:16:48;;;;;;;106.28;18.42;;;22.40;42.70;;;;;;4955896;28;20072;-67
2021/10/22 04:19:14;;;;;;;113.53;18.55;;;22.30;42.70;;;;;;4956982;28;20110;-65
2021/10/22 04:21:41;;;;;;;109.85;18.67;;;22.30;42.80;;;;;;4953078;28;20084;-68
2021/10/22 04:24:10;;;;;;;96.40;18.00;;;22.30;42.80;;;;;;4956235;28;20076;-71
2021/10/22 04:26:36;;;;;;;93.00;18.75;;;22.30;42.70;;;;;;4954410;28;20532;-66
2021/10/22 04:29:03;;;;;;;113.00;21.55;;;22.10;43.40;;;;;;4952940;28;20522;-66
2021/10/22 04:31:29;;;;;;;113.18;21.10;;;22.10;43.20;;;;;;4951600;28;20108;-66
2021/10/22 04:33:55;;;;;;;;;;;22.10;43.40;;;;;;4952229;28;20098;-65
2021/10/22 04:36:22;;;;;;;129.30;22.00;;;22.00;43.20;;;;;;4953162;28;20005;-66
2021/10/22 04:41:33;;;;;;;104.00;21.00;;;21.90;43.70;;;;;;4952681;28;20103;-65
2021/10/22 04:44:00;;;;;;;96.43;20.67;;;21.90;43.90;;;;;;4950933;28;20075;-65
2021/10/22 04:46:26;;;;;;;103.47;19.27;;;21.80;43.50;;;;;;4951106;28;20134;-64
2021/10/22 04:48:53;;;;;;;98.93;20.92;;;21.80;44.00;;;;;;4951320;28;20589;-64
2021/10/22 04:51:19;;;;;;;106.28;20.08;;;21.80;44.40;;;;;;4953778;28;20088;-64
2021/10/22 04:53:45;;;;;;;82.93;19.23;;;21.70;44.20;;;;;;4951313;28;20134;-63
2021/10/22 04:56:12;;;;;;;;;;;21.60;44.00;;;;;;4951593;28;20084;-63
2021/10/22 04:58:38;;;;;;;104.35;20.58;;;21.60;44.30;;;;;;4967496;28;20368;-65
2021/10/22 05:01:05;;;;;;;117.80;20.80;;;21.60;44.50;;;;;;4952046;28;20451;-67
2021/10/22 05:03:31;;;;;;;90.43;19.17;;;21.60;44.40;;;;;;4950911;28;20091;-65
2021/10/22 05:05:58;;;;;;;104.30;19.83;;;21.50;44.50;;;;;;4951122;28;20071;-66
2021/10/22 05:08:24;;;;;;;104.78;18.92;;;21.50;44.30;;;;;;4951269;28;20079;-65
2021/10/22 05:10:50;;;;;;;122.30;19.33;;;21.50;44.80;;;;;;4950808;28;20092;-66
2021/10/22 05:13:17;;;;;;;95.95;18.92;;;21.50;44.30;;;;;;4950747;28;20545;-64
2021/10/22 05:15:43;;;;;;;96.25;18.27;;;21.50;44.30;;;;;;4950598;28;20107;-67
2021/10/22 05:18:10;;;;;;;93.68;17.95;;;21.50;44.60;;;;;;4951148;28;20118;-64
2021/10/22 05:20:36;;;;;;;;;;;21.40;44.80;;;;;;4951100;28;20459;-67
2021/10/22 05:23:02;;;;;;;83.07;18.88;;;21.40;45.00;;;;;;4966163;28;19959;-65
2021/10/22 05:25:29;;;;;;;87.88;19.90;;;21.30;44.90;;;;;;4949551;28;20083;-67
2021/10/22 05:27:56;;;;;;;93.53;19.60;;;21.30;44.90;;;;;;4952173;28;20075;-66
2021/10/22 05:30:23;;;;;;;91.88;19.58;;;21.40;45.00;;;;;;4950857;28;20111;-65
2021/10/22 05:32:50;;;;;;;76.25;19.08;;;21.30;45.40;;;;;;4951449;28;20076;-68
2021/10/22 05:35:17;;;;;;;89.05;21.45;;;21.20;45.40;;;;;;4950708;28;20086;-65
2021/10/22 05:37:43;;;;;;;84.80;21.75;;;21.20;45.60;;;;;;4951307;28;20427;-64
2021/10/22 05:40:10;;;;;;;80.82;21.02;;;21.10;45.70;;;;;;4950800;28;20613;-69
2021/10/22 05:42:36;;;;;;;84.05;20.38;;;21.10;45.30;;;;;;4965220;28;20083;-66
2021/10/22 05:45:04;;;;;;;65.03;18.90;;;21.10;45.60;;;;;;4950031;28;20075;-66
2021/10/22 05:47:30;;;;;;;63.58;17.40;;;21.10;44.40;;;;;;4950009;28;20095;-67
2021/10/22 05:49:57;;;;;;;67.47;16.80;;;21.10;43.70;;;;;;4950065;28;20079;-64
2021/10/22 05:52:23;;;;;;;58.45;16.02;;;21.10;43.30;;;;;;4950428;28;20079;-65
2021/10/22 05:54:50;;;;;;;58.63;14.77;;;21.10;43.10;;;;;;4950366;28;20095;-66
2021/10/22 05:57:16;;;;;;;64.68;15.25;;;21.10;43.10;;;;;;4950347;28;20084;-64
2021/10/22 05:59:42;;;;;;;62.92;14.30;;;21.00;43.50;;;;;;4950925;28;20099;-65
2021/10/22 06:02:09;;;;;;;48.75;12.55;;;21.00;43.70;;;;;;4950594;28;20075;-63
2021/10/22 06:04:36;;;;;;;44.95;10.60;;;21.00;43.30;;;;;;4951644;28;20103;-67
2021/10/22 06:07:03;;;;;;;49.05;10.75;;;21.00;43.30;;;;;;4950050;28;20094;-64
2021/10/22 06:09:30;;;;;;;39.25;10.82;;;21.00;43.20;;;;;;4950363;28;20086;-65
2021/10/22 06:11:56;;;;;;;52.47;11.07;;;20.90;43.10;;;;;;4953894;28;20159;-66
2021/10/22 06:14:22;;;;;;;37.53;9.55;;;20.80;43.40;;;;;;4950289;28;20072;-65
2021/10/22 06:16:49;;;;;;;45.28;9.60;;;20.80;44.10;;;;;;4967720;28;20088;-66
2021/10/22 06:19:21;;;;;;;40.40;9.63;;;20.70;44.70;;;;;;4969591;28;20103;-66
2021/10/22 06:21:55;;;;;;;45.00;9.93;;;20.60;44.40;;;;;;4949089;28;20095;-62
2021/10/22 06:24:21;;;;;;;47.63;10.45;;;20.60;44.60;;;;;;4950998;28;20064;-63
2021/10/22 06:26:49;;;;;;;45.80;9.90;;;20.60;44.50;;;;;;4950260;28;20486;-65
2021/10/22 06:29:15;;;;;;;42.67;9.45;;;20.60;45.10;;;;;;4964433;28;20545;-63
2021/10/22 06:31:43;;;;;;;35.08;10.23;;;20.50;45.00;;;;;;4964702;28;20562;-66
2021/10/22 06:34:10;;;;;;;59.92;10.55;;;20.50;45.10;;;;;;4948900;28;20110;-64
2021/10/22 06:36:37;;;;;;;48.00;10.23;;;20.50;45.20;;;;;;4964144;28;20621;-63
2021/10/22 06:39:05;;;;;;;38.53;9.25;;;20.50;44.90;;;;;;4949453;28;20467;-63
2021/10/22 06:41:32;;;;;;;50.88;10.10;;;20.50;44.80;;;;;;4966131;28;20092;-64
2021/10/22 06:43:59;;;;;;;56.20;10.13;;;20.40;45.90;;;;;;4949272;28;20072;-67
2021/10/22 06:46:25;;;;;;;45.42;10.45;;;20.40;45.90;;;;;;4953280;28;20111;-63
2021/10/22 06:48:52;;;;;;;46.85;9.32;;;20.30;45.60;;;;;;4952686;28;20073;-62
2021/10/22 06:51:18;;;;;;;43.30;10.38;;;20.30;45.60;;;;;;4952661;28;20106;-65
2021/10/22 06:53:45;;;;;;;42.92;9.80;;;20.20;45.80;;;;;;4954763;28;20691;-64
2021/10/22 06:56:12;;;;;;;48.50;9.18;;;20.20;46.10;;;;;;4967804;28;20665;-65
2021/10/22 06:58:38;;;;;;;40.65;10.85;;;20.20;45.80;;;;;;4953265;28;20103;-66
2021/10/22 07:01:05;;;;;;;50.28;10.75;;;20.20;46.80;;;;;;4951741;28;20183;-67
2021/10/22 07:03:44;;;;;;;51.25;10.70;;;20.10;46.20;;;;;;4954347;28;20441;-67
2021/10/22 07:08:56;;;;;;;53.22;10.82;;;20.10;47.10;;;;;;4953567;28;20111;-65
2021/10/22 07:11:24;;;;;;;35.53;9.68;;;20.00;46.40;;;;;;4952314;28;20076;-63
2021/10/22 07:13:55;;;;;;;44.42;10.85;;;19.90;46.60;;;;;;4953396;28;20163;-65
2021/10/22 07:16:23;;;;;;;39.97;9.73;;;19.90;47.30;;;;;;4950140;28;20194;-67
2021/10/22 07:18:50;;;;;;;36.45;9.45;;;19.90;47.00;;;;;;4952714;28;20185;-65
2021/10/22 07:21:18;;;;;;;47.95;10.25;;;19.90;48.50;;;;;;4952517;28;20100;-64
2021/10/22 07:23:48;;;;;;;36.80;9.25;;;19.90;47.30;;;;;;4968387;28;20170;-63
2021/10/22 07:26:16;;;;;;;47.40;8.85;;;19.90;47.70;;;;;;4969163;28;20083;-65
2021/10/22 07:28:43;;;;;;;33.13;7.88;;;19.90;47.70;;;;;;4970000;28;20115;-65
2021/10/22 07:31:10;;;;;;;44.95;9.15;;;19.90;47.70;;;;;;4969394;28;20563;-65
2021/10/22 07:33:42;;;;;;;37.28;8.88;;;19.80;47.90;;;;;;4952937;28;20454;-67
2021/10/22 07:36:14;;;;;;;44.63;8.50;;;19.80;47.80;;;;;;4954468;28;20102;-66
2021/10/22 07:38:44;;;;;;;42.53;8.30;;;19.80;48.10;;;;;;4951778;28;20083;-63
2021/10/22 07:41:12;;;;;;;45.15;8.82;;;19.70;47.80;;;;;;4968616;28;20104;-64
2021/10/22 07:43:39;;;;;;;35.63;7.97;;;19.70;47.90;;;;;;4953119;28;20437;-65
2021/10/22 07:46:06;;;;;;;39.58;8.30;;;19.70;48.60;;;;;;4946460;28;20108;-67
2021/10/22 07:48:33;;;;;;;34.08;8.82;;;19.50;48.20;;;;;;4955126;28;20072;-63
2021/10/22 07:51:02;;;;;;;46.50;8.02;;;19.50;48.10;;;;;;4953155;28;20535;-64
2021/10/22 07:53:29;;;;;;;33.67;7.22;;;19.60;48.30;;;;;;4953713;28;20071;-64
2021/10/22 07:55:56;;;;;;;32.95;6.93;;;19.60;48.10;;;;;;4968289;28;20267;-66
2021/10/22 07:58:22;;;;;;;36.95;7.82;;;19.60;48.20;;;;;;4973719;28;20084;-63
2021/10/22 08:00:49;;;;;;;27.02;7.05;;;19.60;48.50;;;;;;4951073;28;20102;-65
2021/10/22 08:03:15;;;;;;;26.83;6.95;;;19.60;48.70;;;;;;4968765;28;20142;-64
2021/10/22 08:05:42;;;;;;;31.95;6.93;;;19.50;49.00;;;;;;4953003;28;20079;-64
2021/10/22 08:08:09;;;;;;;37.95;7.55;;;19.50;49.50;;;;;;4950116;28;20107;-67
2021/10/22 08:10:37;;;;;;;32.05;6.65;;;19.40;49.00;;;;;;4964936;28;20091;-64
2021/10/22 08:13:09;;;;;;;30.85;6.80;;;19.20;49.30;;;;;;4950886;28;20108;-63
2021/10/22 08:15:37;;;;;;;31.25;6.47;;;19.20;49.80;;;;;;4965645;28;20541;-61
2021/10/22 08:18:04;;;;;;;33.38;6.80;;;19.10;50.00;;;;;;4952963;28;20091;-61
2021/10/22 08:20:33;;;;;;;33.47;6.80;;;19.20;51.00;;;;;;4951848;28;20095;-61
2021/10/22 08:23:00;;;;;;;81.00;9.45;;;19.20;50.30;;;;;;4967437;28;20080;-63
2021/10/22 08:25:26;;;;;;;43.78;7.32;;;19.20;50.40;;;;;;4967464;28;20104;-61
2021/10/22 08:27:53;;;;;;;35.80;6.95;;;19.20;50.40;;;;;;4951978;28;20076;-64
2021/10/22 08:30:23;;;;;;;35.30;8.13;;;19.20;50.60;;;;;;4950730;28;20095;-64
2021/10/22 08:32:51;;;;;;;35.30;7.70;;;19.10;50.50;;;;;;4949786;28;20086;-65
2021/10/22 08:35:21;;;;;;;53.90;8.02;;;19.00;64.10;;;;;;4950853;28;20121;-62
2021/10/22 08:37:49;;;;;;;40.83;8.85;;;19.10;50.50;;;;;;4951647;28;20453;-63
2021/10/22 08:40:17;;;;;;;31.48;7.63;;;19.10;50.50;;;;;;4949697;28;20099;-63
2021/10/22 08:42:45;;;;;;;43.00;7.55;;;19.10;50.50;;;;;;4966444;28;20502;-64
2021/10/22 08:45:12;;;;;;;34.90;7.38;;;19.00;50.60;;;;;;4966093;28;20501;-66
2021/10/22 08:47:40;;;;;;;36.10;7.60;;;18.70;71.10;;;;;;4951477;28;20068;-64
2021/10/22 08:50:13;;;;;;;31.48;7.97;;;18.90;51.90;;;;;;4966008;28;20490;-66
2021/10/22 08:52:43;;;;;;;36.00;7.80;;;18.90;51.80;;;;;;4965106;28;20084;-66
2021/10/22 08:55:11;;;;;;;35.85;8.90;;;18.80;51.50;;;;;;4950928;28;20138;-64
2021/10/22 08:57:46;;;;;;;32.47;6.57;;;18.80;51.40;;;;;;4950796;28;20532;-64
2021/10/22 09:00:14;;;;;;;35.15;7.03;;;18.80;51.70;;;;;;4952670;28;20087;-64
2021/10/22 09:02:44;;;;;;;44.95;7.82;;;18.80;51.70;;;;;;4950212;28;20068;-63
2021/10/22 09:05:23;;;;;;;39.00;7.82;;;18.80;51.50;;;;;;4965712;28;20576;-66
2021/10/22 09:07:54;;;;;;;38.75;7.65;;;18.80;51.30;;;;;;4944576;28;20072;-63
2021/10/22 09:10:20;;;;;;;28.02;7.00;;;18.80;51.70;;;;;;4951638;28;20076;-67
2021/10/22 09:12:52;;;;;;;44.50;7.85;;;18.80;51.50;;;;;;4965288;28;20630;-67
2021/10/22 09:15:27;;;;;;;45.03;8.82;;;18.80;51.50;;;;;;4963572;28;20084;-64
2021/10/22 09:17:57;;;;;;;35.53;7.78;;;18.70;51.70;;;;;;4963972;28;20091;-66
2021/10/22 09:20:25;;;;;;;41.10;8.15;;;18.60;51.10;;;;;;4949432;28;20226;-67
2021/10/22 09:22:57;;;;;;;35.58;7.72;;;18.60;51.70;;;;;;4947556;28;20554;-65
2021/10/22 09:25:26;;;;;;;27.10;6.97;;;18.60;51.60;;;;;;4963516;28;20092;-63
2021/10/22 09:28:01;;;;;;;34.95;8.30;;;18.60;51.60;;;;;;4964036;28;20123;-64
2021/10/22 09:30:46;;;;;;;50.38;8.32;;;18.50;51.70;;;;;;4948343;28;20473;-67
2021/10/22 09:33:12;;;;;;;40.70;8.25;;;18.50;51.60;;;;;;4965612;28;20174;-64
2021/10/22 09:35:44;;;;;;;;;;;18.50;51.60;;;;;;4950943;28;20163;-64
2021/10/22 09:38:21;;;;;;;35.45;7.78;;;18.50;51.70;;;;;;4964623;28;20345;-63
2021/10/22 09:41:09;;;;;;;48.92;8.60;;;18.50;51.80;;;;;;4963940;28;20595;-63
2021/10/22 09:43:39;;;;;;;32.28;8.07;;;18.50;51.80;;;;;;4950551;28;20179;-66
2021/10/22 09:46:21;;;;;;;34.15;7.82;;;18.40;52.00;;;;;;4949236;28;20609;-65
2021/10/22 09:48:49;;;;;;;35.92;7.80;;;18.20;71.60;;;;;;4952757;28;20099;-63
2021/10/22 09:51:23;;;;;;;28.75;7.13;;;18.60;70.70;;;;;;4949366;28;20535;-64
2021/10/22 09:53:50;;;;;;;33.03;8.80;;;18.30;52.80;;;;;;4949981;28;20418;-66
2021/10/22 09:56:25;;;;;;;37.55;8.00;;;18.20;52.30;;;;;;4965435;28;20080;-65
2021/10/22 09:59:06;;;;;;;34.55;7.53;;;18.20;52.30;;;;;;4966209;28;20083;-66
2021/10/22 10:01:38;;;;;;;39.03;7.07;;;18.20;52.50;;;;;;4934467;28;20103;-65
2021/10/22 10:04:10;;;;;;;33.72;8.45;;;18.30;52.20;;;;;;4949888;28;20170;-62
2021/10/22 10:06:41;;;;;;;41.35;7.35;;;18.30;52.00;;;;;;4963581;28;20099;-67
2021/10/22 10:09:15;;;;;;;40.60;7.28;;;18.30;52.00;;;;;;4964569;28;20593;-65
2021/10/22 10:11:45;;;;;;;30.08;7.03;;;18.20;52.20;;;;;;4951526;28;20096;-64
2021/10/22 10:14:14;;;;;;;39.83;7.35;;;18.00;51.90;;;;;;4966702;28;20488;-62
2021/10/22 10:16:42;;;;;;;37.80;6.53;;;18.00;51.90;;;;;;4950958;28;20087;-66
2021/10/22 10:19:24;;;;;;;27.00;6.45;;;18.10;52.30;;;;;;4949968;28;20080;-63
2021/10/22 10:22:03;;;;;;;29.77;6.43;;;18.00;51.40;;;;;;4952802;28;20092;-63
2021/10/22 10:24:43;;;;;;;29.65;6.15;;;18.00;51.50;;;;;;4970145;28;20076;-64
2021/10/22 10:27:19;;;;;;;24.60;6.22;;;17.90;51.80;;;;;;4969687;28;20087;-68
2021/10/22 10:29:48;;;;;;;27.15;5.80;;;17.90;51.10;;;;;;4955593;28;20146;-64
2021/10/22 10:32:18;;;;;;;41.65;6.50;;;17.90;51.20;;;;;;4968796;28;20194;-65
2021/10/22 10:34:57;;;;;;;28.58;6.50;;;17.90;51.00;;;;;;4968545;28;20068;-65
2021/10/22 10:37:28;;;;;;;34.80;5.88;;;17.80;50.80;;;;;;4969524;28;20423;-65
2021/10/22 10:40:07;;;;;;;38.78;6.68;;;17.90;51.00;;;;;;4968573;28;20098;-65
2021/10/22 10:42:44;;;;;;;33.47;6.55;;;17.90;51.00;;;;;;4953839;28;20206;-63
2021/10/22 10:45:25;;;;;;;;;;;17.80;51.20;;;;;;4954079;28;20538;-66
2021/10/22 10:47:56;;;;;;;25.48;6.95;;;17.80;51.60;;;;;;4953701;28;20108;-66
2021/10/22 10:50:44;;;;;;;43.28;7.72;;;17.80;51.80;;;;;;4952682;28;20072;-64
2021/10/22 10:53:15;;;;;;;38.90;8.48;;;17.70;51.70;;;;;;4939471;28;20059;-64
2021/10/22 10:55:51;;;;;;;32.88;8.32;;;17.70;51.60;;;;;;4956269;28;20530;-64
2021/10/22 10:58:20;;;;;;;39.40;9.23;;;17.70;51.60;;;;;;4953139;28;20091;-64
2021/10/22 11:00:54;;;;;;;37.20;9.38;;;17.70;51.60;;;;;;4953562;28;20100;-64
2021/10/22 11:03:26;;;;;;;42.22;9.23;;;17.70;51.60;;;;;;4950691;28;20670;-64
2021/10/22 11:05:54;;;;;;;46.90;9.68;;;17.70;51.20;;;;;;4937035;28;20092;-65
2021/10/22 11:08:36;;;;;;;52.97;9.82;;;17.70;50.90;;;;;;4953069;28;20586;-64
2021/10/22 11:11:09;;;;;;;47.00;9.88;;;17.80;50.80;;;;;;4952136;28;20118;-66
2021/10/22 11:14:09;;;;;;;40.90;10.10;;;17.70;50.50;;;;;;4967516;28;20088;-66
2021/10/22 11:16:50;;;;;;;42.92;9.18;;;17.70;50.00;;;;;;4952771;28;20502;-66
2021/10/22 11:19:37;;;;;;;39.15;9.77;;;17.70;49.00;;;;;;4951689;28;20558;-63
2021/10/22 11:22:12;;;;;;;34.25;9.07;;;17.70;48.70;;;;;;4952177;28;20123;-64
2021/10/22 11:24:41;;;;;;;23.83;7.07;;;17.70;48.70;;;;;;4968536;28;20079;-63
2021/10/22 11:27:13;;;;;;;37.05;8.27;;;17.70;49.10;;;;;;4953501;28;20150;-63
2021/10/22 11:29:50;;;;;;;28.52;7.35;;;17.60;58.40;;;;;;4952871;28;20678;-66
2021/10/22 11:32:26;;;;;;;32.80;7.28;;;17.70;48.10;;;;;;4951360;28;20126;-65
2021/10/22 11:34:57;;;;;;;29.17;7.07;;;17.70;48.50;;;;;;4953526;28;20091;-65
2021/10/22 11:37:37;;;;;;;32.90;8.68;;;17.60;48.90;;;;;;4952998;28;20068;-66
2021/10/22 11:40:07;;;;;;;39.33;7.43;;;17.60;48.70;;;;;;4954509;28;20557;-64
2021/10/22 11:42:35;;;;;;;31.90;7.53;;;17.60;48.70;;;;;;4952557;28;20091;-65
2021/10/22 11:45:08;;;;;;;30.92;7.57;;;17.60;48.10;;;;;;4952089;28;20094;-63
2021/10/22 11:47:42;;;;;;;34.55;7.18;;;17.60;47.10;;;;;;4951573;28;20188;-64
2021/10/22 11:50:28;;;;;;;37.42;6.55;;;17.50;46.60;;;;;;4936148;28;20083;-65
2021/10/22 11:53:10;;;;;;;24.00;6.70;;;17.60;46.80;;;;;;4953201;28;20163;-64
2021/10/22 11:55:37;;;;;;;33.88;7.22;;;17.60;46.60;;;;;;4952207;28;20076;-66
2021/10/22 11:58:05;;;;;;;28.33;6.38;;;17.50;46.60;;;;;;4953380;28;20103;-66
2021/10/22 12:00:33;;;;;;;33.85;6.85;;;17.40;46.70;;;;;;4968340;28;20577;-66
2021/10/22 12:02:59;;;;;;;23.08;6.05;;;17.40;46.90;;;;;;4950360;28;20079;-66
2021/10/22 12:05:27;;;;;;;29.83;6.70;;;17.30;46.80;;;;;;4951178;28;20548;-67
2021/10/22 12:07:58;;;;;;;27.15;6.00;;;17.40;47.10;;;;;;4949558;28;20685;-64
2021/10/22 12:10:25;;;;;;;23.30;6.15;;;17.30;47.60;;;;;;4966247;28;20076;-64
2021/10/22 12:12:53;;;;;;;26.67;5.65;;;17.40;47.80;;;;;;4963752;28;20156;-65
2021/10/22 12:15:28;;;;;;;30.02;6.88;;;17.40;47.20;;;;;;4935320;28;20530;-62
2021/10/22 12:17:59;;;;;;;27.80;6.05;;;17.30;47.20;;;;;;4951913;28;20169;-65
2021/10/22 12:20:26;;;;;;;28.55;6.05;;;17.20;47.50;;;;;;4949973;28;20095;-67
2021/10/22 12:22:58;;;;;;;27.25;5.72;;;17.20;47.40;;;;;;4936323;28;20076;-66
2021/10/22 12:25:27;;;;;;;28.85;5.72;;;17.20;47.70;;;;;;4966318;28;20423;-64
2021/10/22 12:27:55;;;;;;;28.88;5.65;;;17.10;47.90;;;;;;4967040;28;20079;-63
2021/10/22 12:30:26;;;;;;;30.63;5.88;;;17.10;47.90;;;;;;4951487;28;20127;-64
2021/10/22 12:33:05;;;;;;;32.92;6.47;;;17.10;47.90;;;;;;4967564;28;20589;-64
2021/10/22 12:35:35;;;;;;;27.30;6.20;;;17.10;48.00;;;;;;4952164;28;20141;-66
2021/10/22 12:38:03;;;;;;;32.85;5.25;;;17.00;48.30;;;;;;4966805;28;20106;-64
2021/10/22 12:40:34;;;;;;;42.85;7.32;;;17.10;48.50;;;;;;4968624;28;20088;-64
2021/10/22 12:43:17;;;;;;;48.90;7.03;;;17.00;48.50;;;;;;4953817;28;20095;-65
2021/10/22 12:45:53;;;;;;;42.33;7.65;;;17.00;48.90;;;;;;4951826;28;20079;-64
2021/10/22 12:48:26;;;;;;;35.58;6.70;;;17.00;49.10;;;;;;4965883;28;20072;-66
2021/10/22 12:50:53;;;;;;;42.03;7.07;;;16.90;49.00;;;;;;4951710;28;20096;-67